HA3H LHZK-LHBS
Flight info
| Callsign | HA3H |
|---|---|
| Flight time | 0h 40m |
| Altitude | 6000 |
| Route | LHZK/02 ALAMU LHBS/27 |
| Aircraft | DC3/M-FLUV/LB1 |
Departure
| Time | 2026-04-23 16:07 |
|---|---|
| Airport | Zalakaros Airfield (LHZK) |
Arrival
| Time | 2026-04-23 16:47 |
|---|---|
| Airport | Budaörs Airfield (LHBS) |
| Time | Latitude | Longitude | Altitude | Speed | Heading |
|---|---|---|---|---|---|
| 2026-04-23 15:51 | 46.55044 | 17.14883 | 373 ft | 0 kts | 324° |
| 2026-04-23 16:05 | 46.55046 | 17.14881 | 375 ft | 3 kts | 323° |
| 2026-04-23 16:05 | 46.55110 | 17.14849 | 374 ft | 5 kts | 22° |
| 2026-04-23 16:05 | 46.55112 | 17.14850 | 374 ft | 0 kts | 27° |
| 2026-04-23 16:05 | 46.55135 | 17.14867 | 375 ft | 16 kts | 27° |
| 2026-04-23 16:06 | 46.55350 | 17.15039 | 380 ft | 52 kts | 23° |
| 2026-04-23 16:06 | 46.55679 | 17.15334 | 493 ft | 61 kts | 18° |
| 2026-04-23 16:06 | 46.56092 | 17.15687 | 633 ft | 77 kts | 18° |
| 2026-04-23 16:06 | 46.56586 | 17.16129 | 745 ft | 95 kts | 33° |
| 2026-04-23 16:07 | 46.57009 | 17.16975 | 904 ft | 111 kts | 54° |
| 2026-04-23 16:07 | 46.57396 | 17.17963 | 1130 ft | 114 kts | 47° |
| 2026-04-23 16:07 | 46.57915 | 17.18795 | 1358 ft | 114 kts | 34° |
| 2026-04-23 16:07 | 46.58470 | 17.19721 | 1469 ft | 133 kts | 58° |
| 2026-04-23 16:08 | 46.58672 | 17.21083 | 1623 ft | 139 kts | 68° |
| 2026-04-23 16:08 | 46.58982 | 17.22404 | 1782 ft | 142 kts | 66° |
| 2026-04-23 16:08 | 46.59289 | 17.23768 | 1945 ft | 140 kts | 57° |
| 2026-04-23 16:08 | 46.59706 | 17.25029 | 2101 ft | 139 kts | 56° |
| 2026-04-23 16:09 | 46.60078 | 17.26340 | 2260 ft | 141 kts | 60° |
| 2026-04-23 16:09 | 46.60431 | 17.27644 | 2431 ft | 138 kts | 58° |
| 2026-04-23 16:09 | 46.60782 | 17.28939 | 2581 ft | 140 kts | 59° |
| 2026-04-23 16:09 | 46.61141 | 17.30275 | 2747 ft | 144 kts | 59° |
| 2026-04-23 16:10 | 46.61507 | 17.31644 | 2911 ft | 146 kts | 59° |
| 2026-04-23 16:10 | 46.61877 | 17.33018 | 3074 ft | 145 kts | 59° |
| 2026-04-23 16:10 | 46.62250 | 17.34375 | 3234 ft | 144 kts | 59° |
| 2026-04-23 16:10 | 46.62611 | 17.35713 | 3393 ft | 141 kts | 59° |
| 2026-04-23 16:11 | 46.62949 | 17.37018 | 3520 ft | 136 kts | 59° |
| 2026-04-23 16:11 | 46.63415 | 17.38173 | 3626 ft | 129 kts | 31° |
| 2026-04-23 16:11 | 46.64191 | 17.38802 | 3748 ft | 128 kts | 20° |
| 2026-04-23 16:11 | 46.64969 | 17.39440 | 3880 ft | 130 kts | 23° |
| 2026-04-23 16:12 | 46.65748 | 17.40118 | 4019 ft | 131 kts | 23° |
| 2026-04-23 16:12 | 46.66539 | 17.40796 | 4157 ft | 132 kts | 23° |
| 2026-04-23 16:12 | 46.67251 | 17.41680 | 4274 ft | 143 kts | 46° |
| 2026-04-23 16:12 | 46.67523 | 17.43133 | 4389 ft | 156 kts | 78° |
| 2026-04-23 16:13 | 46.67675 | 17.44658 | 4526 ft | 150 kts | 63° |
| 2026-04-23 16:13 | 46.68379 | 17.47507 | 4800 ft | 152 kts | 63° |
| 2026-04-23 16:13 | 46.68705 | 17.48965 | 4936 ft | 152 kts | 62° |
| 2026-04-23 16:14 | 46.69041 | 17.50426 | 5066 ft | 152 kts | 62° |
| 2026-04-23 16:14 | 46.69371 | 17.51891 | 5205 ft | 152 kts | 63° |
| 2026-04-23 16:14 | 46.69701 | 17.53356 | 5330 ft | 152 kts | 62° |
| 2026-04-23 16:14 | 46.70033 | 17.54823 | 5461 ft | 153 kts | 62° |
| 2026-04-23 16:15 | 46.70367 | 17.56296 | 5592 ft | 153 kts | 62° |
| 2026-04-23 16:15 | 46.70701 | 17.57768 | 5725 ft | 153 kts | 61° |
| 2026-04-23 16:15 | 46.71036 | 17.59235 | 5857 ft | 152 kts | 62° |
| 2026-04-23 16:15 | 46.71370 | 17.60697 | 5986 ft | 152 kts | 62° |
| 2026-04-23 16:16 | 46.71701 | 17.62171 | 6064 ft | 156 kts | 62° |
| 2026-04-23 16:16 | 46.72050 | 17.63700 | 6075 ft | 162 kts | 62° |
| 2026-04-23 16:16 | 46.72404 | 17.65281 | 6077 ft | 166 kts | 63° |
| 2026-04-23 16:16 | 46.72761 | 17.66892 | 6072 ft | 168 kts | 63° |
| 2026-04-23 16:17 | 46.73130 | 17.68511 | 6075 ft | 169 kts | 63° |
| 2026-04-23 16:17 | 46.73498 | 17.70149 | 6070 ft | 171 kts | 63° |
| 2026-04-23 16:17 | 46.73868 | 17.71797 | 6072 ft | 171 kts | 63° |
| 2026-04-23 16:17 | 46.74236 | 17.73439 | 6072 ft | 170 kts | 63° |
| 2026-04-23 16:18 | 46.74606 | 17.75086 | 6068 ft | 171 kts | 64° |
| 2026-04-23 16:18 | 46.74979 | 17.76742 | 6070 ft | 172 kts | 63° |
| 2026-04-23 16:18 | 46.75356 | 17.78378 | 6075 ft | 173 kts | 63° |
| 2026-04-23 16:18 | 46.75738 | 17.80053 | 6073 ft | 175 kts | 64° |
| 2026-04-23 16:19 | 46.76105 | 17.81747 | 6067 ft | 175 kts | 64° |
| 2026-04-23 16:19 | 46.76483 | 17.83433 | 6069 ft | 175 kts | 63° |
| 2026-04-23 16:19 | 46.76862 | 17.85110 | 6065 ft | 174 kts | 64° |
| 2026-04-23 16:19 | 46.77238 | 17.86795 | 6070 ft | 175 kts | 63° |
| 2026-04-23 16:20 | 46.77616 | 17.88480 | 6066 ft | 175 kts | 63° |
| 2026-04-23 16:20 | 46.77992 | 17.90166 | 6064 ft | 175 kts | 63° |
| 2026-04-23 16:20 | 46.78365 | 17.91854 | 6065 ft | 175 kts | 64° |
| 2026-04-23 16:20 | 46.78744 | 17.93542 | 6065 ft | 175 kts | 63° |
| 2026-04-23 16:21 | 46.79122 | 17.95220 | 6064 ft | 173 kts | 63° |
| 2026-04-23 16:21 | 46.79497 | 17.96889 | 6049 ft | 173 kts | 64° |
| 2026-04-23 16:21 | 46.79862 | 17.98558 | 6054 ft | 173 kts | 64° |
| 2026-04-23 16:21 | 46.80234 | 18.00218 | 6053 ft | 172 kts | 64° |
| 2026-04-23 16:22 | 46.80605 | 18.01869 | 6052 ft | 171 kts | 64° |
| 2026-04-23 16:22 | 46.80974 | 18.03527 | 6041 ft | 173 kts | 64° |
| 2026-04-23 16:22 | 46.81342 | 18.05206 | 6052 ft | 173 kts | 64° |
| 2026-04-23 16:22 | 46.81709 | 18.06883 | 6045 ft | 174 kts | 64° |
| 2026-04-23 16:23 | 46.81953 | 18.07992 | 6060 ft | 173 kts | 64° |
| 2026-04-23 16:23 | 46.82330 | 18.09660 | 6050 ft | 172 kts | 64° |
| 2026-04-23 16:23 | 46.82704 | 18.11323 | 6060 ft | 172 kts | 64° |
| 2026-04-23 16:23 | 46.83234 | 18.12841 | 6042 ft | 165 kts | 45° |
| 2026-04-23 16:24 | 46.83993 | 18.14073 | 6045 ft | 163 kts | 41° |
| 2026-04-23 16:24 | 46.84706 | 18.15369 | 6045 ft | 165 kts | 47° |
| 2026-04-23 16:24 | 46.85604 | 18.17157 | 6042 ft | 164 kts | 45° |
| 2026-04-23 16:24 | 46.86080 | 18.18036 | 6046 ft | 163 kts | 45° |
| 2026-04-23 16:25 | 46.86769 | 18.19344 | 6044 ft | 163 kts | 46° |
| 2026-04-23 16:25 | 46.87451 | 18.20659 | 6037 ft | 162 kts | 45° |
| 2026-04-23 16:25 | 46.88136 | 18.21955 | 6035 ft | 161 kts | 45° |
| 2026-04-23 16:25 | 46.88804 | 18.23236 | 6033 ft | 161 kts | 46° |
| 2026-04-23 16:26 | 46.89481 | 18.24532 | 6035 ft | 161 kts | 46° |
| 2026-04-23 16:26 | 46.90159 | 18.25834 | 6037 ft | 161 kts | 46° |
| 2026-04-23 16:26 | 46.90842 | 18.27140 | 6034 ft | 162 kts | 46° |
| 2026-04-23 16:26 | 46.91526 | 18.28452 | 6032 ft | 162 kts | 46° |
| 2026-04-23 16:27 | 46.92211 | 18.29772 | 6035 ft | 164 kts | 45° |
| 2026-04-23 16:27 | 46.92907 | 18.31089 | 6033 ft | 164 kts | 46° |
| 2026-04-23 16:27 | 46.93598 | 18.32416 | 6032 ft | 164 kts | 46° |
| 2026-04-23 16:27 | 46.94286 | 18.33744 | 6038 ft | 163 kts | 46° |
| 2026-04-23 16:28 | 46.94976 | 18.35060 | 6035 ft | 163 kts | 46° |
| 2026-04-23 16:28 | 46.95657 | 18.36381 | 6029 ft | 163 kts | 46° |
| 2026-04-23 16:28 | 46.96345 | 18.37702 | 6029 ft | 163 kts | 46° |
| 2026-04-23 16:28 | 46.97034 | 18.39023 | 6033 ft | 164 kts | 46° |
| 2026-04-23 16:29 | 46.97721 | 18.40351 | 6035 ft | 163 kts | 46° |
| 2026-04-23 16:29 | 46.98409 | 18.41671 | 6043 ft | 163 kts | 46° |
| 2026-04-23 16:29 | 46.99097 | 18.42996 | 6041 ft | 164 kts | 47° |
| 2026-04-23 16:29 | 46.99784 | 18.44330 | 6039 ft | 164 kts | 46° |
| 2026-04-23 16:30 | 47.00478 | 18.45658 | 6035 ft | 164 kts | 46° |
| 2026-04-23 16:30 | 47.01169 | 18.46990 | 6034 ft | 164 kts | 46° |
| 2026-04-23 16:30 | 47.01859 | 18.48324 | 6034 ft | 164 kts | 46° |
| 2026-04-23 16:30 | 47.02553 | 18.49659 | 6030 ft | 165 kts | 46° |
| 2026-04-23 16:31 | 47.03236 | 18.50982 | 6030 ft | 165 kts | 47° |
| 2026-04-23 16:31 | 47.03929 | 18.52325 | 6022 ft | 165 kts | 46° |
| 2026-04-23 16:31 | 47.04623 | 18.53663 | 6025 ft | 165 kts | 47° |
| 2026-04-23 16:31 | 47.05314 | 18.55005 | 6022 ft | 165 kts | 47° |
| 2026-04-23 16:32 | 47.06008 | 18.56341 | 6018 ft | 165 kts | 46° |
| 2026-04-23 16:32 | 47.06699 | 18.57684 | 6018 ft | 165 kts | 47° |
| 2026-04-23 16:32 | 47.07389 | 18.59025 | 6018 ft | 164 kts | 46° |
| 2026-04-23 16:32 | 47.08082 | 18.60353 | 6018 ft | 164 kts | 47° |
| 2026-04-23 16:33 | 47.08768 | 18.61689 | 6019 ft | 164 kts | 47° |
| 2026-04-23 16:33 | 47.09453 | 18.63022 | 6013 ft | 163 kts | 47° |
| 2026-04-23 16:33 | 47.10139 | 18.64347 | 6014 ft | 163 kts | 47° |
| 2026-04-23 16:33 | 47.10817 | 18.65667 | 6015 ft | 161 kts | 47° |
| 2026-04-23 16:34 | 47.11491 | 18.66979 | 6010 ft | 160 kts | 47° |
| 2026-04-23 16:34 | 47.12157 | 18.68280 | 6005 ft | 159 kts | 47° |
| 2026-04-23 16:34 | 47.12824 | 18.69565 | 6012 ft | 157 kts | 47° |
| 2026-04-23 16:34 | 47.13483 | 18.70849 | 6007 ft | 157 kts | 47° |
| 2026-04-23 16:35 | 47.14137 | 18.72125 | 6006 ft | 156 kts | 47° |
| 2026-04-23 16:35 | 47.14804 | 18.73365 | 6012 ft | 154 kts | 45° |
| 2026-04-23 16:35 | 47.15466 | 18.74604 | 6004 ft | 154 kts | 46° |
| 2026-04-23 16:35 | 47.16113 | 18.75832 | 6010 ft | 154 kts | 46° |
| 2026-04-23 16:36 | 47.16779 | 18.77066 | 6003 ft | 154 kts | 46° |
| 2026-04-23 16:36 | 47.17443 | 18.78299 | 6001 ft | 154 kts | 46° |
| 2026-04-23 16:36 | 47.18107 | 18.79532 | 6004 ft | 154 kts | 46° |
| 2026-04-23 16:36 | 47.18765 | 18.80775 | 6002 ft | 154 kts | 46° |
| 2026-04-23 16:37 | 47.19437 | 18.82006 | 6002 ft | 154 kts | 45° |
| 2026-04-23 16:37 | 47.20106 | 18.83232 | 6001 ft | 154 kts | 46° |
| 2026-04-23 16:37 | 47.20778 | 18.84452 | 5918 ft | 154 kts | 46° |
| 2026-04-23 16:37 | 47.21457 | 18.85684 | 5804 ft | 156 kts | 45° |
| 2026-04-23 16:38 | 47.22140 | 18.86937 | 5692 ft | 158 kts | 46° |
| 2026-04-23 16:38 | 47.22827 | 18.88200 | 5587 ft | 158 kts | 45° |
| 2026-04-23 16:38 | 47.23520 | 18.89460 | 5467 ft | 158 kts | 44° |
| 2026-04-23 16:38 | 47.24417 | 18.90305 | 5330 ft | 154 kts | 14° |
| 2026-04-23 16:39 | 47.25457 | 18.90710 | 5206 ft | 155 kts | 12° |
| 2026-04-23 16:39 | 47.26480 | 18.91238 | 5089 ft | 156 kts | 19° |
| 2026-04-23 16:39 | 47.27483 | 18.91875 | 4967 ft | 157 kts | 20° |
| 2026-04-23 16:39 | 47.28470 | 18.92570 | 4854 ft | 158 kts | 21° |
| 2026-04-23 16:40 | 47.29462 | 18.93278 | 4734 ft | 159 kts | 21° |
| 2026-04-23 16:40 | 47.30455 | 18.93989 | 4615 ft | 159 kts | 21° |
| 2026-04-23 16:40 | 47.31458 | 18.94696 | 4496 ft | 161 kts | 21° |
| 2026-04-23 16:40 | 47.32472 | 18.95402 | 4378 ft | 162 kts | 21° |
| 2026-04-23 16:41 | 47.33493 | 18.96112 | 4260 ft | 163 kts | 21° |
| 2026-04-23 16:41 | 47.34520 | 18.96827 | 4095 ft | 163 kts | 21° |
| 2026-04-23 16:41 | 47.35548 | 18.97545 | 3923 ft | 163 kts | 22° |
| 2026-04-23 16:41 | 47.36494 | 18.98498 | 3765 ft | 167 kts | 35° |
| 2026-04-23 16:42 | 47.37389 | 18.99594 | 3581 ft | 168 kts | 35° |
| 2026-04-23 16:42 | 47.38302 | 19.00659 | 3426 ft | 167 kts | 33° |
| 2026-04-23 16:42 | 47.39177 | 19.01799 | 3252 ft | 171 kts | 46° |
| 2026-04-23 16:42 | 47.39552 | 19.03447 | 3028 ft | 177 kts | 85° |
| 2026-04-23 16:43 | 47.39461 | 19.05195 | 2991 ft | 164 kts | 92° |
| 2026-04-23 16:43 | 47.39256 | 19.06806 | 2976 ft | 154 kts | 91° |
| 2026-04-23 16:43 | 47.39516 | 19.08190 | 2940 ft | 133 kts | 42° |
| 2026-04-23 16:43 | 47.40302 | 19.08585 | 2936 ft | 120 kts | 346° |
| 2026-04-23 16:44 | 47.40858 | 19.07750 | 2922 ft | 123 kts | 289° |
| 2026-04-23 16:44 | 47.40939 | 19.06507 | 2911 ft | 123 kts | 283° |
| 2026-04-23 16:44 | 47.41283 | 19.05390 | 2808 ft | 120 kts | 318° |
| 2026-04-23 16:44 | 47.41982 | 19.04902 | 2633 ft | 108 kts | 348° |
| 2026-04-23 16:45 | 47.42719 | 19.04869 | 2366 ft | 99 kts | 356° |
| 2026-04-23 16:45 | 47.43310 | 19.04525 | 2107 ft | 96 kts | 316° |
| 2026-04-23 16:45 | 47.43710 | 19.03659 | 1750 ft | 101 kts | 306° |
| 2026-04-23 16:45 | 47.44055 | 19.02857 | 1493 ft | 85 kts | 308° |
| 2026-04-23 16:46 | 47.44372 | 19.02151 | 1270 ft | 81 kts | 308° |
| 2026-04-23 16:46 | 47.44650 | 19.01427 | 1079 ft | 81 kts | 304° |
| 2026-04-23 16:46 | 47.44866 | 19.00648 | 891 ft | 83 kts | 290° |
| 2026-04-23 16:46 | 47.44930 | 18.99778 | 703 ft | 83 kts | 281° |
| 2026-04-23 16:47 | 47.45055 | 18.98986 | 520 ft | 77 kts | 283° |
| 2026-04-23 16:47 | 47.45095 | 18.98241 | 418 ft | 65 kts | 283° |
| 2026-04-23 16:47 | 47.45136 | 18.97808 | 415 ft | 17 kts | 278° |
| 2026-04-23 16:47 | 47.45149 | 18.97687 | 414 ft | 8 kts | 279° |
| 2026-04-23 16:48 | 47.45148 | 18.97621 | 414 ft | 4 kts | 216° |
| 2026-04-23 16:48 | 47.45097 | 18.97634 | 414 ft | 13 kts | 152° |
| 2026-04-23 16:48 | 47.45027 | 18.97755 | 409 ft | 17 kts | 121° |
| 2026-04-23 16:48 | 47.44960 | 18.97936 | 413 ft | 22 kts | 111° |
| 2026-04-23 16:49 | 47.44902 | 18.98048 | 415 ft | 19 kts | 148° |
| 2026-04-23 16:49 | 47.44860 | 18.98101 | 407 ft | 0 kts | 126° |